sensor_id;sensor_type;location;lat;lon;timestamp;temperature;humidity
22779;DHT22;11556;51.194;3.800;2024-02-23T00:00:27;6.00;99.90
22779;DHT22;11556;51.194;3.800;2024-02-23T00:02:53;6.00;99.90
22779;DHT22;11556;51.194;3.800;2024-02-23T00:05:23;5.90;99.90
22779;DHT22;11556;51.194;3.800;2024-02-23T00:07:49;6.00;99.90
22779;DHT22;11556;51.194;3.800;2024-02-23T00:10:15;6.00;99.90
22779;DHT22;11556;51.194;3.800;2024-02-23T00:12:41;6.10;99.90
22779;DHT22;11556;51.194;3.800;2024-02-23T00:15:07;6.10;99.90
22779;DHT22;11556;51.194;3.800;2024-02-23T00:17:33;6.00;99.90
22779;DHT22;11556;51.194;3.800;2024-02-23T00:19:58;6.00;99.90
22779;DHT22;11556;51.194;3.800;2024-02-23T00:22:24;6.10;99.90
22779;DHT22;11556;51.194;3.800;2024-02-23T00:24:51;6.10;99.90
22779;DHT22;11556;51.194;3.800;2024-02-23T00:27:17;6.10;99.90
22779;DHT22;11556;51.194;3.800;2024-02-23T00:29:42;6.10;99.90
22779;DHT22;11556;51.194;3.800;2024-02-23T00:32:08;6.00;99.90
22779;DHT22;11556;51.194;3.800;2024-02-23T00:34:34;6.10;99.90
22779;DHT22;11556;51.194;3.800;2024-02-23T00:36:59;6.10;99.90
22779;DHT22;11556;51.194;3.800;2024-02-23T00:39:25;6.20;99.90
22779;DHT22;11556;51.194;3.800;2024-02-23T00:41:50;6.20;99.90
22779;DHT22;11556;51.194;3.800;2024-02-23T00:44:16;6.20;99.90
22779;DHT22;11556;51.194;3.800;2024-02-23T00:46:42;6.20;99.90
22779;DHT22;11556;51.194;3.800;2024-02-23T00:49:07;6.30;99.90
22779;DHT22;11556;51.194;3.800;2024-02-23T00:51:33;6.40;99.90
22779;DHT22;11556;51.194;3.800;2024-02-23T00:53:59;6.30;99.90
22779;DHT22;11556;51.194;3.800;2024-02-23T00:56:25;6.30;99.90
22779;DHT22;11556;51.194;3.800;2024-02-23T00:58:51;6.30;99.90
22779;DHT22;11556;51.194;3.800;2024-02-23T01:01:17;6.40;99.90
22779;DHT22;11556;51.194;3.800;2024-02-23T01:03:42;6.40;99.90
22779;DHT22;11556;51.194;3.800;2024-02-23T01:06:08;6.40;99.90
22779;DHT22;11556;51.194;3.800;2024-02-23T01:08:33;6.40;99.90
22779;DHT22;11556;51.194;3.800;2024-02-23T01:11:00;6.40;99.90
22779;DHT22;11556;51.194;3.800;2024-02-23T01:13:25;6.30;99.90
22779;DHT22;11556;51.194;3.800;2024-02-23T01:15:51;6.30;99.90
22779;DHT22;11556;51.194;3.800;2024-02-23T01:18:19;6.30;99.90
22779;DHT22;11556;51.194;3.800;2024-02-23T01:20:45;6.20;99.90
22779;DHT22;11556;51.194;3.800;2024-02-23T01:23:10;6.20;99.90
22779;DHT22;11556;51.194;3.800;2024-02-23T01:25:36;6.20;99.90
22779;DHT22;11556;51.194;3.800;2024-02-23T01:28:03;6.00;99.90
22779;DHT22;11556;51.194;3.800;2024-02-23T01:30:28;6.00;99.90
22779;DHT22;11556;51.194;3.800;2024-02-23T01:32:54;6.00;99.90
22779;DHT22;11556;51.194;3.800;2024-02-23T01:35:20;6.00;99.90
22779;DHT22;11556;51.194;3.800;2024-02-23T01:37:45;6.00;99.90
22779;DHT22;11556;51.194;3.800;2024-02-23T01:40:11;6.00;99.90
22779;DHT22;11556;51.194;3.800;2024-02-23T01:42:38;5.90;99.90
22779;DHT22;11556;51.194;3.800;2024-02-23T01:45:04;5.90;99.90
22779;DHT22;11556;51.194;3.800;2024-02-23T01:47:31;6.00;99.90
22779;DHT22;11556;51.194;3.800;2024-02-23T01:49:58;5.90;99.90
22779;DHT22;11556;51.194;3.800;2024-02-23T01:52:24;5.90;99.90
22779;DHT22;11556;51.194;3.800;2024-02-23T01:54:50;5.90;99.90
22779;DHT22;11556;51.194;3.800;2024-02-23T01:57:17;5.90;99.90
22779;DHT22;11556;51.194;3.800;2024-02-23T01:59:43;5.90;99.90
22779;DHT22;11556;51.194;3.800;2024-02-23T02:02:09;5.80;99.90
22779;DHT22;11556;51.194;3.800;2024-02-23T02:04:34;5.90;99.90
22779;DHT22;11556;51.194;3.800;2024-02-23T02:07:01;5.90;99.90
22779;DHT22;11556;51.194;3.800;2024-02-23T02:09:26;6.00;99.90
22779;DHT22;11556;51.194;3.800;2024-02-23T02:11:52;6.00;99.90
22779;DHT22;11556;51.194;3.800;2024-02-23T02:14:18;5.90;99.90
22779;DHT22;11556;51.194;3.800;2024-02-23T02:16:44;5.90;99.90
22779;DHT22;11556;51.194;3.800;2024-02-23T02:19:13;5.90;99.90
22779;DHT22;11556;51.194;3.800;2024-02-23T02:21:40;5.90;99.90
22779;DHT22;11556;51.194;3.800;2024-02-23T02:24:06;5.90;99.90
22779;DHT22;11556;51.194;3.800;2024-02-23T02:26:32;6.00;99.90
22779;DHT22;11556;51.194;3.800;2024-02-23T02:28:58;6.00;99.90
22779;DHT22;11556;51.194;3.800;2024-02-23T02:31:23;6.10;99.90
22779;DHT22;11556;51.194;3.800;2024-02-23T02:33:49;6.20;99.90
22779;DHT22;11556;51.194;3.800;2024-02-23T02:36:15;6.20;99.90
22779;DHT22;11556;51.194;3.800;2024-02-23T02:38:40;6.30;99.90
22779;DHT22;11556;51.194;3.800;2024-02-23T02:41:06;6.30;99.90
22779;DHT22;11556;51.194;3.800;2024-02-23T02:43:32;6.20;99.90
22779;DHT22;11556;51.194;3.800;2024-02-23T02:45:58;6.30;99.90
22779;DHT22;11556;51.194;3.800;2024-02-23T02:48:24;6.40;99.90
22779;DHT22;11556;51.194;3.800;2024-02-23T02:50:50;6.40;99.90
22779;DHT22;11556;51.194;3.800;2024-02-23T02:53:16;6.50;99.90
22779;DHT22;11556;51.194;3.800;2024-02-23T02:55:43;6.50;99.90
22779;DHT22;11556;51.194;3.800;2024-02-23T02:58:11;6.50;99.90
22779;DHT22;11556;51.194;3.800;2024-02-23T03:00:36;6.40;99.90
22779;DHT22;11556;51.194;3.800;2024-02-23T03:03:02;6.30;99.90
22779;DHT22;11556;51.194;3.800;2024-02-23T03:05:28;6.30;99.90
22779;DHT22;11556;51.194;3.800;2024-02-23T03:07:54;6.40;99.90
22779;DHT22;11556;51.194;3.800;2024-02-23T03:10:19;6.30;99.90
22779;DHT22;11556;51.194;3.800;2024-02-23T03:12:45;6.30;99.90
22779;DHT22;11556;51.194;3.800;2024-02-23T03:15:11;6.40;99.90
22779;DHT22;11556;51.194;3.800;2024-02-23T03:17:37;6.50;99.90
22779;DHT22;11556;51.194;3.800;2024-02-23T03:20:04;6.50;99.90
22779;DHT22;11556;51.194;3.800;2024-02-23T03:22:37;6.40;99.90
22779;DHT22;11556;51.194;3.800;2024-02-23T03:25:03;6.40;99.90
22779;DHT22;11556;51.194;3.800;2024-02-23T03:27:36;6.40;99.90
22779;DHT22;11556;51.194;3.800;2024-02-23T03:30:06;6.40;99.90
22779;DHT22;11556;51.194;3.800;2024-02-23T03:32:33;6.40;99.90
22779;DHT22;11556;51.194;3.800;2024-02-23T03:35:05;6.40;99.90
22779;DHT22;11556;51.194;3.800;2024-02-23T03:37:31;6.30;99.90
22779;DHT22;11556;51.194;3.800;2024-02-23T03:39:57;6.30;99.90
22779;DHT22;11556;51.194;3.800;2024-02-23T03:42:23;6.30;99.90
22779;DHT22;11556;51.194;3.800;2024-02-23T03:44:48;6.30;99.90
22779;DHT22;11556;51.194;3.800;2024-02-23T03:47:14;6.20;99.90
22779;DHT22;11556;51.194;3.800;2024-02-23T03:49:40;6.30;99.90
22779;DHT22;11556;51.194;3.800;2024-02-23T03:52:05;6.40;99.90
22779;DHT22;11556;51.194;3.800;2024-02-23T03:54:31;6.40;99.90
22779;DHT22;11556;51.194;3.800;2024-02-23T03:56:57;6.40;99.90
22779;DHT22;11556;51.194;3.800;2024-02-23T03:59:22;6.40;99.90
22779;DHT22;11556;51.194;3.800;2024-02-23T04:01:49;6.50;99.90
22779;DHT22;11556;51.194;3.800;2024-02-23T04:04:14;6.60;99.90
22779;DHT22;11556;51.194;3.800;2024-02-23T04:06:40;6.70;99.90
22779;DHT22;11556;51.194;3.800;2024-02-23T04:09:05;6.60;99.90
22779;DHT22;11556;51.194;3.800;2024-02-23T04:11:32;6.70;99.90
22779;DHT22;11556;51.194;3.800;2024-02-23T04:13:57;6.80;99.90
22779;DHT22;11556;51.194;3.800;2024-02-23T04:16:24;6.70;99.90
22779;DHT22;11556;51.194;3.800;2024-02-23T04:18:53;6.60;99.90
22779;DHT22;11556;51.194;3.800;2024-02-23T04:21:19;6.50;99.90
22779;DHT22;11556;51.194;3.800;2024-02-23T04:23:45;6.40;99.90
22779;DHT22;11556;51.194;3.800;2024-02-23T04:26:10;6.40;99.90
22779;DHT22;11556;51.194;3.800;2024-02-23T04:28:39;6.30;99.90
22779;DHT22;11556;51.194;3.800;2024-02-23T04:31:04;6.20;99.90
22779;DHT22;11556;51.194;3.800;2024-02-23T04:33:30;6.30;99.90
22779;DHT22;11556;51.194;3.800;2024-02-23T04:35:56;6.40;99.90
22779;DHT22;11556;51.194;3.800;2024-02-23T04:38:21;6.40;99.90
22779;DHT22;11556;51.194;3.800;2024-02-23T04:40:47;6.40;99.90
22779;DHT22;11556;51.194;3.800;2024-02-23T04:43:13;6.30;99.90
22779;DHT22;11556;51.194;3.800;2024-02-23T04:45:39;6.40;99.90
22779;DHT22;11556;51.194;3.800;2024-02-23T04:48:04;6.40;99.90
22779;DHT22;11556;51.194;3.800;2024-02-23T04:50:30;6.40;99.90
22779;DHT22;11556;51.194;3.800;2024-02-23T04:52:56;6.40;99.90
22779;DHT22;11556;51.194;3.800;2024-02-23T04:55:21;6.40;99.90
22779;DHT22;11556;51.194;3.800;2024-02-23T04:57:47;6.20;99.90
22779;DHT22;11556;51.194;3.800;2024-02-23T05:00:13;6.30;99.90
22779;DHT22;11556;51.194;3.800;2024-02-23T05:02:39;6.30;99.90
22779;DHT22;11556;51.194;3.800;2024-02-23T05:05:05;6.30;99.90
22779;DHT22;11556;51.194;3.800;2024-02-23T05:07:31;6.20;99.90
22779;DHT22;11556;51.194;3.800;2024-02-23T05:09:57;6.20;99.90
22779;DHT22;11556;51.194;3.800;2024-02-23T05:12:23;6.10;99.90
22779;DHT22;11556;51.194;3.800;2024-02-23T05:14:49;6.10;99.90
22779;DHT22;11556;51.194;3.800;2024-02-23T05:17:15;6.10;99.90
22779;DHT22;11556;51.194;3.800;2024-02-23T05:19:40;6.10;99.90
22779;DHT22;11556;51.194;3.800;2024-02-23T05:22:06;6.10;99.90
22779;DHT22;11556;51.194;3.800;2024-02-23T05:24:32;6.00;99.90
22779;DHT22;11556;51.194;3.800;2024-02-23T05:26:57;6.10;99.90
22779;DHT22;11556;51.194;3.800;2024-02-23T05:29:24;6.20;99.90
22779;DHT22;11556;51.194;3.800;2024-02-23T05:31:51;6.20;99.90
22779;DHT22;11556;51.194;3.800;2024-02-23T05:34:17;6.20;99.90
22779;DHT22;11556;51.194;3.800;2024-02-23T05:36:44;6.20;99.90
22779;DHT22;11556;51.194;3.800;2024-02-23T05:39:12;6.30;99.90
22779;DHT22;11556;51.194;3.800;2024-02-23T05:41:38;6.30;99.90
22779;DHT22;11556;51.194;3.800;2024-02-23T05:44:04;6.40;99.90
22779;DHT22;11556;51.194;3.800;2024-02-23T05:46:35;6.30;99.90
22779;DHT22;11556;51.194;3.800;2024-02-23T05:49:02;6.40;99.90
22779;DHT22;11556;51.194;3.800;2024-02-23T05:51:30;6.40;99.90
22779;DHT22;11556;51.194;3.800;2024-02-23T05:53:56;6.40;99.90
22779;DHT22;11556;51.194;3.800;2024-02-23T05:56:22;6.30;99.90
22779;DHT22;11556;51.194;3.800;2024-02-23T05:58:52;6.30;99.90
22779;DHT22;11556;51.194;3.800;2024-02-23T06:01:18;6.30;99.90
22779;DHT22;11556;51.194;3.800;2024-02-23T06:03:44;6.30;99.90
22779;DHT22;11556;51.194;3.800;2024-02-23T06:06:10;6.40;99.90
22779;DHT22;11556;51.194;3.800;2024-02-23T06:08:36;6.30;99.90
22779;DHT22;11556;51.194;3.800;2024-02-23T06:11:03;6.30;99.90
22779;DHT22;11556;51.194;3.800;2024-02-23T06:13:30;6.30;99.90
22779;DHT22;11556;51.194;3.800;2024-02-23T06:15:56;6.40;99.90
22779;DHT22;11556;51.194;3.800;2024-02-23T06:18:21;6.40;99.90
22779;DHT22;11556;51.194;3.800;2024-02-23T06:20:48;6.40;99.90
22779;DHT22;11556;51.194;3.800;2024-02-23T06:23:15;6.50;99.90
22779;DHT22;11556;51.194;3.800;2024-02-23T06:25:41;6.50;99.90
22779;DHT22;11556;51.194;3.800;2024-02-23T06:28:06;6.60;99.90
22779;DHT22;11556;51.194;3.800;2024-02-23T06:30:32;6.50;99.90
22779;DHT22;11556;51.194;3.800;2024-02-23T06:32:58;6.60;99.90
22779;DHT22;11556;51.194;3.800;2024-02-23T06:35:23;6.50;99.90
22779;DHT22;11556;51.194;3.800;2024-02-23T06:37:49;6.60;99.90
22779;DHT22;11556;51.194;3.800;2024-02-23T06:40:15;6.70;99.90
22779;DHT22;11556;51.194;3.800;2024-02-23T06:42:40;6.60;99.90
22779;DHT22;11556;51.194;3.800;2024-02-23T06:45:06;6.60;99.90
22779;DHT22;11556;51.194;3.800;2024-02-23T06:47:33;6.60;99.90
22779;DHT22;11556;51.194;3.800;2024-02-23T06:49:59;6.70;99.90
22779;DHT22;11556;51.194;3.800;2024-02-23T06:52:25;6.70;99.90
22779;DHT22;11556;51.194;3.800;2024-02-23T06:54:51;6.80;99.90
22779;DHT22;11556;51.194;3.800;2024-02-23T06:57:17;6.70;99.90
22779;DHT22;11556;51.194;3.800;2024-02-23T06:59:43;6.70;99.90
22779;DHT22;11556;51.194;3.800;2024-02-23T07:02:08;6.70;99.90
22779;DHT22;11556;51.194;3.800;2024-02-23T07:04:34;6.70;99.90
22779;DHT22;11556;51.194;3.800;2024-02-23T07:07:00;6.70;99.90
22779;DHT22;11556;51.194;3.800;2024-02-23T07:09:31;6.80;99.90
22779;DHT22;11556;51.194;3.800;2024-02-23T07:11:57;6.80;99.90
22779;DHT22;11556;51.194;3.800;2024-02-23T07:14:23;6.80;99.90
22779;DHT22;11556;51.194;3.800;2024-02-23T07:16:48;6.90;99.90
22779;DHT22;11556;51.194;3.800;2024-02-23T07:19:15;6.80;99.90
22779;DHT22;11556;51.194;3.800;2024-02-23T07:21:40;6.80;99.90
22779;DHT22;11556;51.194;3.800;2024-02-23T07:24:06;6.70;99.90
22779;DHT22;11556;51.194;3.800;2024-02-23T07:26:32;6.50;99.90
22779;DHT22;11556;51.194;3.800;2024-02-23T07:28:58;6.50;99.90
22779;DHT22;11556;51.194;3.800;2024-02-23T07:31:23;6.60;99.90
22779;DHT22;11556;51.194;3.800;2024-02-23T07:33:49;6.50;99.90
22779;DHT22;11556;51.194;3.800;2024-02-23T07:36:15;6.40;99.90
22779;DHT22;11556;51.194;3.800;2024-02-23T07:38:41;6.50;99.90
22779;DHT22;11556;51.194;3.800;2024-02-23T07:41:06;6.50;99.90
22779;DHT22;11556;51.194;3.800;2024-02-23T07:43:32;6.40;99.90
22779;DHT22;11556;51.194;3.800;2024-02-23T07:45:58;6.40;99.90
22779;DHT22;11556;51.194;3.800;2024-02-23T07:48:23;6.30;99.90
22779;DHT22;11556;51.194;3.800;2024-02-23T07:50:49;6.30;99.90
22779;DHT22;11556;51.194;3.800;2024-02-23T07:53:14;6.20;99.90
22779;DHT22;11556;51.194;3.800;2024-02-23T07:55:40;6.30;99.90
22779;DHT22;11556;51.194;3.800;2024-02-23T07:58:06;6.30;99.90
22779;DHT22;11556;51.194;3.800;2024-02-23T08:00:31;6.40;99.90
22779;DHT22;11556;51.194;3.800;2024-02-23T08:02:57;6.40;99.90
22779;DHT22;11556;51.194;3.800;2024-02-23T08:05:24;6.30;99.90
22779;DHT22;11556;51.194;3.800;2024-02-23T08:07:50;6.40;99.90
22779;DHT22;11556;51.194;3.800;2024-02-23T08:10:15;6.50;99.90
22779;DHT22;11556;51.194;3.800;2024-02-23T08:12:41;6.50;99.90
22779;DHT22;11556;51.194;3.800;2024-02-23T08:15:07;6.50;99.90
22779;DHT22;11556;51.194;3.800;2024-02-23T08:17:33;6.60;99.90
22779;DHT22;11556;51.194;3.800;2024-02-23T08:19:58;6.70;99.90
22779;DHT22;11556;51.194;3.800;2024-02-23T08:22:24;6.70;99.90
22779;DHT22;11556;51.194;3.800;2024-02-23T08:24:49;6.70;99.90
22779;DHT22;11556;51.194;3.800;2024-02-23T08:27:15;6.80;99.90
22779;DHT22;11556;51.194;3.800;2024-02-23T08:29:41;6.80;99.90
22779;DHT22;11556;51.194;3.800;2024-02-23T08:32:07;6.90;99.90
22779;DHT22;11556;51.194;3.800;2024-02-23T08:34:33;7.00;99.90
22779;DHT22;11556;51.194;3.800;2024-02-23T08:37:00;7.10;99.90
22779;DHT22;11556;51.194;3.800;2024-02-23T08:39:26;7.20;99.90
22779;DHT22;11556;51.194;3.800;2024-02-23T08:41:52;7.30;99.90
22779;DHT22;11556;51.194;3.800;2024-02-23T08:44:18;7.40;99.90
22779;DHT22;11556;51.194;3.800;2024-02-23T08:46:44;7.50;99.90
22779;DHT22;11556;51.194;3.800;2024-02-23T08:49:10;7.60;99.90
22779;DHT22;11556;51.194;3.800;2024-02-23T08:51:35;7.60;99.90
22779;DHT22;11556;51.194;3.800;2024-02-23T08:54:01;7.50;99.90
22779;DHT22;11556;51.194;3.800;2024-02-23T08:56:30;7.40;99.90
22779;DHT22;11556;51.194;3.800;2024-02-23T08:58:56;7.40;99.90
22779;DHT22;11556;51.194;3.800;2024-02-23T09:01:21;7.40;99.90
22779;DHT22;11556;51.194;3.800;2024-02-23T09:03:47;7.40;99.90
22779;DHT22;11556;51.194;3.800;2024-02-23T09:06:13;7.50;99.90
22779;DHT22;11556;51.194;3.800;2024-02-23T09:08:39;7.60;99.90
22779;DHT22;11556;51.194;3.800;2024-02-23T09:11:06;7.50;99.90
22779;DHT22;11556;51.194;3.800;2024-02-23T09:13:32;7.60;99.90
22779;DHT22;11556;51.194;3.800;2024-02-23T09:15:58;7.70;99.90
22779;DHT22;11556;51.194;3.800;2024-02-23T09:18:24;7.70;99.90
22779;DHT22;11556;51.194;3.800;2024-02-23T09:20:49;7.80;99.90
22779;DHT22;11556;51.194;3.800;2024-02-23T09:23:15;7.80;99.90
22779;DHT22;11556;51.194;3.800;2024-02-23T09:25:41;7.80;99.90
22779;DHT22;11556;51.194;3.800;2024-02-23T09:28:07;7.80;99.90
22779;DHT22;11556;51.194;3.800;2024-02-23T09:30:32;7.90;99.90
22779;DHT22;11556;51.194;3.800;2024-02-23T09:32:58;8.00;99.90
22779;DHT22;11556;51.194;3.800;2024-02-23T09:35:24;7.90;99.90
22779;DHT22;11556;51.194;3.800;2024-02-23T09:37:49;8.00;99.90
22779;DHT22;11556;51.194;3.800;2024-02-23T09:40:15;8.20;99.90
22779;DHT22;11556;51.194;3.800;2024-02-23T09:42:42;8.30;99.90
22779;DHT22;11556;51.194;3.800;2024-02-23T09:45:08;8.30;99.90
22779;DHT22;11556;51.194;3.800;2024-02-23T09:47:36;8.30;99.90
22779;DHT22;11556;51.194;3.800;2024-02-23T09:50:04;8.30;99.90
22779;DHT22;11556;51.194;3.800;2024-02-23T09:52:32;8.30;99.90
22779;DHT22;11556;51.194;3.800;2024-02-23T09:54:58;8.40;99.90
22779;DHT22;11556;51.194;3.800;2024-02-23T09:57:24;8.40;99.90
22779;DHT22;11556;51.194;3.800;2024-02-23T09:59:50;8.60;99.90
22779;DHT22;11556;51.194;3.800;2024-02-23T10:02:17;8.70;99.90
22779;DHT22;11556;51.194;3.800;2024-02-23T10:04:43;8.70;99.90
22779;DHT22;11556;51.194;3.800;2024-02-23T10:07:10;8.60;99.90
22779;DHT22;11556;51.194;3.800;2024-02-23T10:09:36;8.60;99.90
22779;DHT22;11556;51.194;3.800;2024-02-23T10:12:02;8.60;99.90
22779;DHT22;11556;51.194;3.800;2024-02-23T10:14:28;8.50;99.90
22779;DHT22;11556;51.194;3.800;2024-02-23T10:16:54;8.40;99.90
22779;DHT22;11556;51.194;3.800;2024-02-23T10:19:21;8.40;99.90
22779;DHT22;11556;51.194;3.800;2024-02-23T10:21:47;8.40;99.90
22779;DHT22;11556;51.194;3.800;2024-02-23T10:24:15;8.50;99.90
22779;DHT22;11556;51.194;3.800;2024-02-23T10:26:41;8.60;99.90
22779;DHT22;11556;51.194;3.800;2024-02-23T10:29:07;8.70;99.90
22779;DHT22;11556;51.194;3.800;2024-02-23T10:31:35;8.90;99.90
22779;DHT22;11556;51.194;3.800;2024-02-23T10:34:08;9.10;99.90
22779;DHT22;11556;51.194;3.800;2024-02-23T10:36:40;9.30;99.90
22779;DHT22;11556;51.194;3.800;2024-02-23T10:39:08;9.50;99.90
22779;DHT22;11556;51.194;3.800;2024-02-23T10:41:35;9.60;99.90
22779;DHT22;11556;51.194;3.800;2024-02-23T10:44:05;9.90;99.90
22779;DHT22;11556;51.194;3.800;2024-02-23T10:46:32;10.40;99.90
22779;DHT22;11556;51.194;3.800;2024-02-23T10:48:58;10.60;99.90
22779;DHT22;11556;51.194;3.800;2024-02-23T10:51:28;10.40;99.90
22779;DHT22;11556;51.194;3.800;2024-02-23T10:53:55;10.10;99.90
22779;DHT22;11556;51.194;3.800;2024-02-23T10:56:21;9.70;99.90
22779;DHT22;11556;51.194;3.800;2024-02-23T10:58:48;9.70;99.90
22779;DHT22;11556;51.194;3.800;2024-02-23T11:01:14;9.40;99.90
22779;DHT22;11556;51.194;3.800;2024-02-23T11:03:42;9.40;99.90
22779;DHT22;11556;51.194;3.800;2024-02-23T11:06:11;9.40;99.90
22779;DHT22;11556;51.194;3.800;2024-02-23T11:08:37;9.50;99.90
22779;DHT22;11556;51.194;3.800;2024-02-23T11:11:10;9.40;99.90
22779;DHT22;11556;51.194;3.800;2024-02-23T11:16:03;9.50;99.90
22779;DHT22;11556;51.194;3.800;2024-02-23T11:18:30;9.50;99.90
22779;DHT22;11556;51.194;3.800;2024-02-23T11:20:59;9.60;99.90
22779;DHT22;11556;51.194;3.800;2024-02-23T11:23:25;9.80;99.90
22779;DHT22;11556;51.194;3.800;2024-02-23T11:28:28;10.10;99.90
22779;DHT22;11556;51.194;3.800;2024-02-23T11:30:54;10.10;99.90
22779;DHT22;11556;51.194;3.800;2024-02-23T11:33:26;10.00;99.90
22779;DHT22;11556;51.194;3.800;2024-02-23T11:35:52;10.00;99.90
22779;DHT22;11556;51.194;3.800;2024-02-23T11:38:19;10.30;99.90
22779;DHT22;11556;51.194;3.800;2024-02-23T11:40:48;10.50;99.90
22779;DHT22;11556;51.194;3.800;2024-02-23T11:43:14;10.10;99.90
22779;DHT22;11556;51.194;3.800;2024-02-23T11:45:40;10.20;99.90
22779;DHT22;11556;51.194;3.800;2024-02-23T11:48:07;10.40;99.90
22779;DHT22;11556;51.194;3.800;2024-02-23T11:50:32;10.40;99.90
22779;DHT22;11556;51.194;3.800;2024-02-23T11:52:59;10.50;99.90
22779;DHT22;11556;51.194;3.800;2024-02-23T11:55:26;10.90;99.90
22779;DHT22;11556;51.194;3.800;2024-02-23T11:57:52;11.50;99.90
22779;DHT22;11556;51.194;3.800;2024-02-23T12:00:18;11.90;99.90
22779;DHT22;11556;51.194;3.800;2024-02-23T12:02:44;12.10;99.90
22779;DHT22;11556;51.194;3.800;2024-02-23T12:05:14;12.00;99.90
22779;DHT22;11556;51.194;3.800;2024-02-23T12:07:41;11.90;99.90
22779;DHT22;11556;51.194;3.800;2024-02-23T12:10:07;11.80;99.90
22779;DHT22;11556;51.194;3.800;2024-02-23T12:12:33;11.80;99.90
22779;DHT22;11556;51.194;3.800;2024-02-23T12:14:59;11.70;99.90
22779;DHT22;11556;51.194;3.800;2024-02-23T12:17:25;11.70;99.90
22779;DHT22;11556;51.194;3.800;2024-02-23T12:20:02;12.10;99.90
22779;DHT22;11556;51.194;3.800;2024-02-23T12:22:28;12.40;99.90
22779;DHT22;11556;51.194;3.800;2024-02-23T12:24:57;12.70;99.90
22779;DHT22;11556;51.194;3.800;2024-02-23T12:27:23;12.10;99.90
22779;DHT22;11556;51.194;3.800;2024-02-23T12:29:54;11.80;99.90
22779;DHT22;11556;51.194;3.800;2024-02-23T12:32:20;11.60;99.90
22779;DHT22;11556;51.194;3.800;2024-02-23T12:34:47;11.50;99.90
22779;DHT22;11556;51.194;3.800;2024-02-23T12:37:16;11.20;99.90
22779;DHT22;11556;51.194;3.800;2024-02-23T12:39:43;11.10;99.90
22779;DHT22;11556;51.194;3.800;2024-02-23T12:42:08;11.00;99.90
22779;DHT22;11556;51.194;3.800;2024-02-23T12:44:34;11.10;99.90
22779;DHT22;11556;51.194;3.800;2024-02-23T12:47:00;11.10;99.90
22779;DHT22;11556;51.194;3.800;2024-02-23T12:49:26;11.40;99.90
22779;DHT22;11556;51.194;3.800;2024-02-23T12:51:51;11.80;99.90
22779;DHT22;11556;51.194;3.800;2024-02-23T12:54:17;12.20;99.90
22779;DHT22;11556;51.194;3.800;2024-02-23T12:56:43;12.90;99.90
22779;DHT22;11556;51.194;3.800;2024-02-23T12:59:08;13.80;99.90
22779;DHT22;11556;51.194;3.800;2024-02-23T13:01:37;13.90;99.90
22779;DHT22;11556;51.194;3.800;2024-02-23T13:04:04;13.40;99.90
22779;DHT22;11556;51.194;3.800;2024-02-23T13:06:38;13.00;99.90
22779;DHT22;11556;51.194;3.800;2024-02-23T13:09:04;13.20;99.90
22779;DHT22;11556;51.194;3.800;2024-02-23T13:11:30;12.90;99.90
22779;DHT22;11556;51.194;3.800;2024-02-23T13:13:56;12.80;99.90
22779;DHT22;11556;51.194;3.800;2024-02-23T13:16:22;12.50;99.90
22779;DHT22;11556;51.194;3.800;2024-02-23T13:18:47;12.40;99.90
22779;DHT22;11556;51.194;3.800;2024-02-23T13:21:14;12.10;99.90
22779;DHT22;11556;51.194;3.800;2024-02-23T13:23:39;11.90;99.90
22779;DHT22;11556;51.194;3.800;2024-02-23T13:26:07;11.70;99.90
22779;DHT22;11556;51.194;3.800;2024-02-23T13:28:33;11.90;99.90
22779;DHT22;11556;51.194;3.800;2024-02-23T13:30:58;12.30;99.90
22779;DHT22;11556;51.194;3.800;2024-02-23T13:33:24;12.80;99.90
22779;DHT22;11556;51.194;3.800;2024-02-23T13:35:51;13.00;99.90
22779;DHT22;11556;51.194;3.800;2024-02-23T13:38:16;13.00;99.90
22779;DHT22;11556;51.194;3.800;2024-02-23T13:40:42;12.90;99.90
22779;DHT22;11556;51.194;3.800;2024-02-23T13:43:08;13.30;99.90
22779;DHT22;11556;51.194;3.800;2024-02-23T13:45:48;13.40;99.90
22779;DHT22;11556;51.194;3.800;2024-02-23T13:48:14;13.20;99.90
22779;DHT22;11556;51.194;3.800;2024-02-23T13:50:40;12.90;99.90
22779;DHT22;11556;51.194;3.800;2024-02-23T13:53:05;13.10;99.90
22779;DHT22;11556;51.194;3.800;2024-02-23T13:55:31;13.00;99.90
22779;DHT22;11556;51.194;3.800;2024-02-23T13:57:56;13.20;99.90
22779;DHT22;11556;51.194;3.800;2024-02-23T14:00:22;13.40;99.90
22779;DHT22;11556;51.194;3.800;2024-02-23T14:02:48;13.40;99.90
22779;DHT22;11556;51.194;3.800;2024-02-23T14:05:14;13.40;99.90
22779;DHT22;11556;51.194;3.800;2024-02-23T14:07:40;13.40;99.90
22779;DHT22;11556;51.194;3.800;2024-02-23T14:10:07;13.60;99.90
22779;DHT22;11556;51.194;3.800;2024-02-23T14:12:33;13.80;99.90
22779;DHT22;11556;51.194;3.800;2024-02-23T14:14:59;14.10;99.90
22779;DHT22;11556;51.194;3.800;2024-02-23T14:17:25;14.30;99.90
22779;DHT22;11556;51.194;3.800;2024-02-23T14:19:51;14.30;99.90
22779;DHT22;11556;51.194;3.800;2024-02-23T14:22:16;14.10;99.90
22779;DHT22;11556;51.194;3.800;2024-02-23T14:24:42;13.70;99.90
22779;DHT22;11556;51.194;3.800;2024-02-23T14:27:08;13.60;99.90
22779;DHT22;11556;51.194;3.800;2024-02-23T14:29:34;13.50;99.90
22779;DHT22;11556;51.194;3.800;2024-02-23T14:32:00;13.40;99.90
22779;DHT22;11556;51.194;3.800;2024-02-23T14:34:26;13.20;99.90
22779;DHT22;11556;51.194;3.800;2024-02-23T14:36:52;13.00;99.90
22779;DHT22;11556;51.194;3.800;2024-02-23T14:39:18;12.80;99.90
22779;DHT22;11556;51.194;3.800;2024-02-23T14:41:44;12.60;99.90
22779;DHT22;11556;51.194;3.800;2024-02-23T14:44:09;12.30;99.90
22779;DHT22;11556;51.194;3.800;2024-02-23T14:46:35;11.90;99.90
22779;DHT22;11556;51.194;3.800;2024-02-23T14:49:00;11.50;99.90
22779;DHT22;11556;51.194;3.800;2024-02-23T14:51:26;11.10;99.90
22779;DHT22;11556;51.194;3.800;2024-02-23T14:53:52;10.90;99.90
22779;DHT22;11556;51.194;3.800;2024-02-23T14:56:17;10.70;99.90
22779;DHT22;11556;51.194;3.800;2024-02-23T14:58:43;10.40;99.90
22779;DHT22;11556;51.194;3.800;2024-02-23T15:01:09;10.50;99.90
22779;DHT22;11556;51.194;3.800;2024-02-23T15:03:35;10.50;99.90
22779;DHT22;11556;51.194;3.800;2024-02-23T15:06:01;10.80;99.90
22779;DHT22;11556;51.194;3.800;2024-02-23T15:08:27;11.40;99.90
22779;DHT22;11556;51.194;3.800;2024-02-23T15:10:53;12.10;99.90
22779;DHT22;11556;51.194;3.800;2024-02-23T15:13:19;12.60;99.90
22779;DHT22;11556;51.194;3.800;2024-02-23T15:15:45;13.10;99.90
22779;DHT22;11556;51.194;3.800;2024-02-23T15:18:11;13.60;99.90
22779;DHT22;11556;51.194;3.800;2024-02-23T15:20:36;13.80;99.90
22779;DHT22;11556;51.194;3.800;2024-02-23T15:23:02;13.80;99.90
22779;DHT22;11556;51.194;3.800;2024-02-23T15:25:28;13.60;99.90
22779;DHT22;11556;51.194;3.800;2024-02-23T15:27:54;13.60;99.90
22779;DHT22;11556;51.194;3.800;2024-02-23T15:30:24;13.10;99.90
22779;DHT22;11556;51.194;3.800;2024-02-23T15:32:49;12.70;99.90
22779;DHT22;11556;51.194;3.800;2024-02-23T15:35:15;12.40;99.90
22779;DHT22;11556;51.194;3.800;2024-02-23T15:37:41;11.90;99.90
22779;DHT22;11556;51.194;3.800;2024-02-23T15:40:07;11.50;99.90